sensor_id;sensor_type;location;lat;lon;timestamp;temperature;humidity
25214;DHT22;13160;51.834;4.706;2023-04-23T00:01:18;9.90;99.90
25214;DHT22;13160;51.834;4.706;2023-04-23T00:03:48;9.90;99.90
25214;DHT22;13160;51.834;4.706;2023-04-23T00:06:17;9.90;99.90
25214;DHT22;13160;51.834;4.706;2023-04-23T00:08:51;9.90;99.90
25214;DHT22;13160;51.834;4.706;2023-04-23T00:11:20;9.80;99.90
25214;DHT22;13160;51.834;4.706;2023-04-23T00:13:50;9.80;99.90
25214;DHT22;13160;51.834;4.706;2023-04-23T00:16:19;9.80;99.90
25214;DHT22;13160;51.834;4.706;2023-04-23T00:18:48;9.80;99.90
25214;DHT22;13160;51.834;4.706;2023-04-23T00:21:16;9.80;99.90
25214;DHT22;13160;51.834;4.706;2023-04-23T00:23:48;9.80;99.90
25214;DHT22;13160;51.834;4.706;2023-04-23T00:26:17;9.80;99.90
25214;DHT22;13160;51.834;4.706;2023-04-23T00:28:46;9.80;99.90
25214;DHT22;13160;51.834;4.706;2023-04-23T00:31:15;9.80;99.90
25214;DHT22;13160;51.834;4.706;2023-04-23T00:33:43;9.80;99.90
25214;DHT22;13160;51.834;4.706;2023-04-23T00:36:11;9.80;99.90
25214;DHT22;13160;51.834;4.706;2023-04-23T00:38:39;9.80;99.90
25214;DHT22;13160;51.834;4.706;2023-04-23T00:41:08;9.80;99.90
25214;DHT22;13160;51.834;4.706;2023-04-23T00:43:38;9.80;99.90
25214;DHT22;13160;51.834;4.706;2023-04-23T00:46:06;9.80;99.90
25214;DHT22;13160;51.834;4.706;2023-04-23T00:48:35;9.80;99.90
25214;DHT22;13160;51.834;4.706;2023-04-23T00:51:04;9.80;99.90
25214;DHT22;13160;51.834;4.706;2023-04-23T00:53:33;9.80;99.90
25214;DHT22;13160;51.834;4.706;2023-04-23T00:56:03;9.80;99.90
25214;DHT22;13160;51.834;4.706;2023-04-23T00:58:33;9.80;99.90
25214;DHT22;13160;51.834;4.706;2023-04-23T01:01:03;9.80;99.90
25214;DHT22;13160;51.834;4.706;2023-04-23T01:03:34;9.90;99.90
25214;DHT22;13160;51.834;4.706;2023-04-23T01:06:04;9.90;99.90
25214;DHT22;13160;51.834;4.706;2023-04-23T01:08:33;9.90;99.90
25214;DHT22;13160;51.834;4.706;2023-04-23T01:11:02;9.90;99.90
25214;DHT22;13160;51.834;4.706;2023-04-23T01:13:30;9.90;99.90
25214;DHT22;13160;51.834;4.706;2023-04-23T01:15:59;9.90;99.90
25214;DHT22;13160;51.834;4.706;2023-04-23T01:18:29;9.90;99.90
25214;DHT22;13160;51.834;4.706;2023-04-23T01:20:58;9.90;99.90
25214;DHT22;13160;51.834;4.706;2023-04-23T01:23:29;9.90;99.90
25214;DHT22;13160;51.834;4.706;2023-04-23T01:25:57;10.00;99.90
25214;DHT22;13160;51.834;4.706;2023-04-23T01:28:26;10.00;99.90
25214;DHT22;13160;51.834;4.706;2023-04-23T01:30:55;10.00;99.90
25214;DHT22;13160;51.834;4.706;2023-04-23T01:33:25;10.00;99.90
25214;DHT22;13160;51.834;4.706;2023-04-23T01:35:54;10.10;99.90
25214;DHT22;13160;51.834;4.706;2023-04-23T01:38:24;10.00;99.90
25214;DHT22;13160;51.834;4.706;2023-04-23T01:40:58;10.10;99.90
25214;DHT22;13160;51.834;4.706;2023-04-23T01:43:27;10.10;99.90
25214;DHT22;13160;51.834;4.706;2023-04-23T01:45:56;10.10;99.90
25214;DHT22;13160;51.834;4.706;2023-04-23T01:48:25;10.10;99.90
25214;DHT22;13160;51.834;4.706;2023-04-23T01:50:54;10.10;99.90
25214;DHT22;13160;51.834;4.706;2023-04-23T01:53:22;10.10;99.90
25214;DHT22;13160;51.834;4.706;2023-04-23T01:55:55;10.10;99.90
25214;DHT22;13160;51.834;4.706;2023-04-23T01:58:24;10.10;99.90
25214;DHT22;13160;51.834;4.706;2023-04-23T02:00:52;10.10;99.90
25214;DHT22;13160;51.834;4.706;2023-04-23T02:03:21;10.20;99.90
25214;DHT22;13160;51.834;4.706;2023-04-23T02:05:50;10.10;99.90
25214;DHT22;13160;51.834;4.706;2023-04-23T02:08:19;10.20;99.90
25214;DHT22;13160;51.834;4.706;2023-04-23T02:10:47;10.20;99.90
25214;DHT22;13160;51.834;4.706;2023-04-23T02:13:17;10.20;99.90
25214;DHT22;13160;51.834;4.706;2023-04-23T02:15:45;10.10;99.90
25214;DHT22;13160;51.834;4.706;2023-04-23T02:18:13;10.10;99.90
25214;DHT22;13160;51.834;4.706;2023-04-23T02:20:42;10.20;99.90
25214;DHT22;13160;51.834;4.706;2023-04-23T02:23:10;10.20;99.90
25214;DHT22;13160;51.834;4.706;2023-04-23T02:25:39;10.20;99.90
25214;DHT22;13160;51.834;4.706;2023-04-23T02:28:09;10.20;99.90
25214;DHT22;13160;51.834;4.706;2023-04-23T02:30:40;10.10;99.90
25214;DHT22;13160;51.834;4.706;2023-04-23T02:33:12;10.20;99.90
25214;DHT22;13160;51.834;4.706;2023-04-23T02:35:40;10.20;99.90
25214;DHT22;13160;51.834;4.706;2023-04-23T02:38:09;10.10;99.90
25214;DHT22;13160;51.834;4.706;2023-04-23T02:40:37;10.20;99.90
25214;DHT22;13160;51.834;4.706;2023-04-23T02:43:06;10.10;99.90
25214;DHT22;13160;51.834;4.706;2023-04-23T02:45:34;10.20;99.90
25214;DHT22;13160;51.834;4.706;2023-04-23T02:48:04;10.10;99.90
25214;DHT22;13160;51.834;4.706;2023-04-23T02:50:32;10.10;99.90
25214;DHT22;13160;51.834;4.706;2023-04-23T02:53:01;10.20;99.90
25214;DHT22;13160;51.834;4.706;2023-04-23T02:55:29;10.10;99.90
25214;DHT22;13160;51.834;4.706;2023-04-23T02:57:58;10.10;99.90
25214;DHT22;13160;51.834;4.706;2023-04-23T03:00:30;10.10;99.90
25214;DHT22;13160;51.834;4.706;2023-04-23T03:02:58;10.10;99.90
25214;DHT22;13160;51.834;4.706;2023-04-23T03:05:28;10.10;99.90
25214;DHT22;13160;51.834;4.706;2023-04-23T03:07:56;10.10;99.90
25214;DHT22;13160;51.834;4.706;2023-04-23T03:10:25;10.10;99.90
25214;DHT22;13160;51.834;4.706;2023-04-23T03:12:53;10.10;99.90
25214;DHT22;13160;51.834;4.706;2023-04-23T03:15:22;10.10;99.90
25214;DHT22;13160;51.834;4.706;2023-04-23T03:17:51;10.10;99.90
25214;DHT22;13160;51.834;4.706;2023-04-23T03:20:19;10.00;99.90
25214;DHT22;13160;51.834;4.706;2023-04-23T03:22:49;10.00;99.90
25214;DHT22;13160;51.834;4.706;2023-04-23T03:25:17;10.00;99.90
25214;DHT22;13160;51.834;4.706;2023-04-23T03:27:46;10.00;99.90
25214;DHT22;13160;51.834;4.706;2023-04-23T03:30:14;10.00;99.90
25214;DHT22;13160;51.834;4.706;2023-04-23T03:32:42;10.00;99.90
25214;DHT22;13160;51.834;4.706;2023-04-23T03:35:11;10.00;99.90
25214;DHT22;13160;51.834;4.706;2023-04-23T03:37:39;10.00;99.90
25214;DHT22;13160;51.834;4.706;2023-04-23T03:40:10;10.00;99.90
25214;DHT22;13160;51.834;4.706;2023-04-23T03:42:38;10.00;99.90
25214;DHT22;13160;51.834;4.706;2023-04-23T03:45:08;10.00;99.90
25214;DHT22;13160;51.834;4.706;2023-04-23T03:47:37;9.90;99.90
25214;DHT22;13160;51.834;4.706;2023-04-23T03:50:06;9.90;99.90
25214;DHT22;13160;51.834;4.706;2023-04-23T03:52:36;9.90;99.90
25214;DHT22;13160;51.834;4.706;2023-04-23T03:55:05;9.90;99.90
25214;DHT22;13160;51.834;4.706;2023-04-23T03:57:36;9.90;99.90
25214;DHT22;13160;51.834;4.706;2023-04-23T04:00:06;9.90;99.90
25214;DHT22;13160;51.834;4.706;2023-04-23T04:02:37;9.90;99.90
25214;DHT22;13160;51.834;4.706;2023-04-23T04:05:07;9.90;99.90
25214;DHT22;13160;51.834;4.706;2023-04-23T04:07:37;9.80;99.90
25214;DHT22;13160;51.834;4.706;2023-04-23T04:10:06;9.80;99.90
25214;DHT22;13160;51.834;4.706;2023-04-23T04:12:36;9.80;99.90
25214;DHT22;13160;51.834;4.706;2023-04-23T04:15:06;9.80;99.90
25214;DHT22;13160;51.834;4.706;2023-04-23T04:17:35;9.80;99.90
25214;DHT22;13160;51.834;4.706;2023-04-23T04:20:05;9.80;99.90
25214;DHT22;13160;51.834;4.706;2023-04-23T04:22:34;9.80;99.90
25214;DHT22;13160;51.834;4.706;2023-04-23T04:25:03;9.70;99.90
25214;DHT22;13160;51.834;4.706;2023-04-23T04:27:32;9.70;99.90
25214;DHT22;13160;51.834;4.706;2023-04-23T04:30:03;9.70;99.90
25214;DHT22;13160;51.834;4.706;2023-04-23T04:32:32;9.70;99.90
25214;DHT22;13160;51.834;4.706;2023-04-23T04:35:01;9.70;99.90
25214;DHT22;13160;51.834;4.706;2023-04-23T04:37:30;9.70;99.90
25214;DHT22;13160;51.834;4.706;2023-04-23T04:39:58;9.70;99.90
25214;DHT22;13160;51.834;4.706;2023-04-23T04:42:27;9.70;99.90
25214;DHT22;13160;51.834;4.706;2023-04-23T04:44:55;9.70;99.90
25214;DHT22;13160;51.834;4.706;2023-04-23T04:47:26;9.70;99.90
25214;DHT22;13160;51.834;4.706;2023-04-23T04:49:55;9.70;99.90
25214;DHT22;13160;51.834;4.706;2023-04-23T04:52:23;9.70;99.90
25214;DHT22;13160;51.834;4.706;2023-04-23T04:54:52;9.70;99.90
25214;DHT22;13160;51.834;4.706;2023-04-23T04:57:20;9.70;99.90
25214;DHT22;13160;51.834;4.706;2023-04-23T04:59:49;9.70;99.90
25214;DHT22;13160;51.834;4.706;2023-04-23T05:02:17;9.70;99.90
25214;DHT22;13160;51.834;4.706;2023-04-23T05:04:48;9.70;99.90
25214;DHT22;13160;51.834;4.706;2023-04-23T05:07:17;9.80;99.90
25214;DHT22;13160;51.834;4.706;2023-04-23T05:09:45;9.80;99.90
25214;DHT22;13160;51.834;4.706;2023-04-23T05:12:13;9.80;99.90
25214;DHT22;13160;51.834;4.706;2023-04-23T05:14:42;9.90;99.90
25214;DHT22;13160;51.834;4.706;2023-04-23T05:17:10;9.90;99.90
25214;DHT22;13160;51.834;4.706;2023-04-23T05:19:39;9.90;99.90
25214;DHT22;13160;51.834;4.706;2023-04-23T05:22:09;9.90;99.90
25214;DHT22;13160;51.834;4.706;2023-04-23T05:24:38;10.00;99.90
25214;DHT22;13160;51.834;4.706;2023-04-23T05:27:07;10.00;99.90
25214;DHT22;13160;51.834;4.706;2023-04-23T05:29:35;10.00;99.90
25214;DHT22;13160;51.834;4.706;2023-04-23T05:32:07;10.00;99.90
25214;DHT22;13160;51.834;4.706;2023-04-23T05:34:36;10.00;99.90
25214;DHT22;13160;51.834;4.706;2023-04-23T05:37:04;10.00;99.90
25214;DHT22;13160;51.834;4.706;2023-04-23T05:39:34;10.00;99.90
25214;DHT22;13160;51.834;4.706;2023-04-23T05:42:03;10.10;99.90
25214;DHT22;13160;51.834;4.706;2023-04-23T05:44:32;10.10;99.90
25214;DHT22;13160;51.834;4.706;2023-04-23T05:47:01;10.10;99.90
25214;DHT22;13160;51.834;4.706;2023-04-23T05:49:29;10.10;99.90
25214;DHT22;13160;51.834;4.706;2023-04-23T05:51:57;10.10;99.90
25214;DHT22;13160;51.834;4.706;2023-04-23T05:54:26;10.10;99.90
25214;DHT22;13160;51.834;4.706;2023-04-23T05:56:56;10.20;99.90
25214;DHT22;13160;51.834;4.706;2023-04-23T05:59:24;10.20;99.90
25214;DHT22;13160;51.834;4.706;2023-04-23T06:01:53;10.20;99.90
25214;DHT22;13160;51.834;4.706;2023-04-23T06:04:21;10.20;99.90
25214;DHT22;13160;51.834;4.706;2023-04-23T06:06:50;10.20;99.90
25214;DHT22;13160;51.834;4.706;2023-04-23T06:09:18;10.30;99.90
25214;DHT22;13160;51.834;4.706;2023-04-23T06:11:47;10.30;99.90
25214;DHT22;13160;51.834;4.706;2023-04-23T06:14:17;10.40;99.90
25214;DHT22;13160;51.834;4.706;2023-04-23T06:16:49;10.40;99.90
25214;DHT22;13160;51.834;4.706;2023-04-23T06:19:17;10.40;99.90
25214;DHT22;13160;51.834;4.706;2023-04-23T06:21:46;10.50;99.90
25214;DHT22;13160;51.834;4.706;2023-04-23T06:24:18;10.50;99.90
25214;DHT22;13160;51.834;4.706;2023-04-23T06:26:49;10.50;99.90
25214;DHT22;13160;51.834;4.706;2023-04-23T06:29:21;10.50;99.90
25214;DHT22;13160;51.834;4.706;2023-04-23T06:31:50;10.60;99.90
25214;DHT22;13160;51.834;4.706;2023-04-23T06:34:18;10.60;99.90
25214;DHT22;13160;51.834;4.706;2023-04-23T06:36:47;10.70;99.90
25214;DHT22;13160;51.834;4.706;2023-04-23T06:39:15;10.70;99.90
25214;DHT22;13160;51.834;4.706;2023-04-23T06:41:43;10.80;99.90
25214;DHT22;13160;51.834;4.706;2023-04-23T06:44:12;10.80;99.90
25214;DHT22;13160;51.834;4.706;2023-04-23T06:46:42;10.90;99.90
25214;DHT22;13160;51.834;4.706;2023-04-23T06:49:10;10.90;99.90
25214;DHT22;13160;51.834;4.706;2023-04-23T06:51:39;11.00;99.90
25214;DHT22;13160;51.834;4.706;2023-04-23T06:54:07;11.10;99.90
25214;DHT22;13160;51.834;4.706;2023-04-23T06:56:35;11.20;99.90
25214;DHT22;13160;51.834;4.706;2023-04-23T06:59:04;11.40;99.90
25214;DHT22;13160;51.834;4.706;2023-04-23T07:01:34;11.80;99.90
25214;DHT22;13160;51.834;4.706;2023-04-23T07:04:04;12.30;99.90
25214;DHT22;13160;51.834;4.706;2023-04-23T07:06:32;12.90;99.90
25214;DHT22;13160;51.834;4.706;2023-04-23T07:09:01;13.60;99.90
25214;DHT22;13160;51.834;4.706;2023-04-23T07:11:30;14.20;99.90
25214;DHT22;13160;51.834;4.706;2023-04-23T07:14:00;15.00;99.90
25214;DHT22;13160;51.834;4.706;2023-04-23T07:16:29;15.60;99.90
25214;DHT22;13160;51.834;4.706;2023-04-23T07:19:00;16.00;99.90
25214;DHT22;13160;51.834;4.706;2023-04-23T07:21:30;16.20;99.90
25214;DHT22;13160;51.834;4.706;2023-04-23T07:23:59;16.40;99.90
25214;DHT22;13160;51.834;4.706;2023-04-23T07:26:32;16.70;99.90
25214;DHT22;13160;51.834;4.706;2023-04-23T07:29:04;16.90;99.90
25214;DHT22;13160;51.834;4.706;2023-04-23T07:31:33;17.00;99.90
25214;DHT22;13160;51.834;4.706;2023-04-23T07:34:02;17.00;99.90
25214;DHT22;13160;51.834;4.706;2023-04-23T07:36:32;17.30;99.90
25214;DHT22;13160;51.834;4.706;2023-04-23T07:39:00;17.60;99.90
25214;DHT22;13160;51.834;4.706;2023-04-23T07:41:28;17.90;99.90
25214;DHT22;13160;51.834;4.706;2023-04-23T07:43:57;17.90;99.90
25214;DHT22;13160;51.834;4.706;2023-04-23T07:46:25;17.90;99.90
25214;DHT22;13160;51.834;4.706;2023-04-23T07:48:54;18.00;99.90
25214;DHT22;13160;51.834;4.706;2023-04-23T07:51:22;18.10;99.90
25214;DHT22;13160;51.834;4.706;2023-04-23T07:53:53;18.20;99.90
25214;DHT22;13160;51.834;4.706;2023-04-23T07:56:24;18.20;99.90
25214;DHT22;13160;51.834;4.706;2023-04-23T07:58:52;18.10;99.90
25214;DHT22;13160;51.834;4.706;2023-04-23T08:01:22;18.00;99.90
25214;DHT22;13160;51.834;4.706;2023-04-23T08:03:51;17.90;99.90
25214;DHT22;13160;51.834;4.706;2023-04-23T08:06:25;18.00;99.90
25214;DHT22;13160;51.834;4.706;2023-04-23T08:08:57;18.10;99.90
25214;DHT22;13160;51.834;4.706;2023-04-23T08:11:26;18.30;99.90
25214;DHT22;13160;51.834;4.706;2023-04-23T08:13:55;18.40;99.90
25214;DHT22;13160;51.834;4.706;2023-04-23T08:16:24;18.50;99.90
25214;DHT22;13160;51.834;4.706;2023-04-23T08:18:53;18.60;99.90
25214;DHT22;13160;51.834;4.706;2023-04-23T08:21:31;18.70;99.90
25214;DHT22;13160;51.834;4.706;2023-04-23T08:24:01;18.80;99.90
25214;DHT22;13160;51.834;4.706;2023-04-23T08:26:30;18.90;99.90
25214;DHT22;13160;51.834;4.706;2023-04-23T08:28:58;19.10;99.90
25214;DHT22;13160;51.834;4.706;2023-04-23T08:31:27;19.20;99.90
25214;DHT22;13160;51.834;4.706;2023-04-23T08:33:56;19.20;99.90
25214;DHT22;13160;51.834;4.706;2023-04-23T08:36:25;19.20;99.90
25214;DHT22;13160;51.834;4.706;2023-04-23T08:38:53;19.20;99.90
25214;DHT22;13160;51.834;4.706;2023-04-23T08:41:27;19.10;99.90
25214;DHT22;13160;51.834;4.706;2023-04-23T08:44:05;18.90;99.90
25214;DHT22;13160;51.834;4.706;2023-04-23T08:46:41;18.70;99.90
25214;DHT22;13160;51.834;4.706;2023-04-23T08:49:14;18.60;99.90
25214;DHT22;13160;51.834;4.706;2023-04-23T08:51:48;18.50;99.90
25214;DHT22;13160;51.834;4.706;2023-04-23T08:54:20;18.40;99.90
25214;DHT22;13160;51.834;4.706;2023-04-23T08:56:54;18.20;99.90
25214;DHT22;13160;51.834;4.706;2023-04-23T08:59:25;18.00;99.90
25214;DHT22;13160;51.834;4.706;2023-04-23T09:01:58;17.90;99.90
25214;DHT22;13160;51.834;4.706;2023-04-23T09:04:34;17.80;99.90
25214;DHT22;13160;51.834;4.706;2023-04-23T09:07:03;17.70;99.90
25214;DHT22;13160;51.834;4.706;2023-04-23T09:09:34;17.60;99.90
25214;DHT22;13160;51.834;4.706;2023-04-23T09:12:04;17.50;99.90
25214;DHT22;13160;51.834;4.706;2023-04-23T09:14:34;17.40;99.90
25214;DHT22;13160;51.834;4.706;2023-04-23T09:17:03;17.40;99.90
25214;DHT22;13160;51.834;4.706;2023-04-23T09:19:32;17.30;99.90
25214;DHT22;13160;51.834;4.706;2023-04-23T09:22:06;17.30;99.90
25214;DHT22;13160;51.834;4.706;2023-04-23T09:24:35;17.30;99.90
25214;DHT22;13160;51.834;4.706;2023-04-23T09:27:05;17.30;99.90
25214;DHT22;13160;51.834;4.706;2023-04-23T09:29:34;17.30;99.90
25214;DHT22;13160;51.834;4.706;2023-04-23T09:32:06;17.40;99.90
25214;DHT22;13160;51.834;4.706;2023-04-23T09:34:36;17.40;99.90
25214;DHT22;13160;51.834;4.706;2023-04-23T09:37:05;17.40;99.90
25214;DHT22;13160;51.834;4.706;2023-04-23T09:39:38;17.40;99.90
25214;DHT22;13160;51.834;4.706;2023-04-23T09:42:08;17.50;99.90
25214;DHT22;13160;51.834;4.706;2023-04-23T09:44:39;17.50;99.90
25214;DHT22;13160;51.834;4.706;2023-04-23T09:47:08;17.60;99.90
25214;DHT22;13160;51.834;4.706;2023-04-23T09:49:47;17.60;99.90
25214;DHT22;13160;51.834;4.706;2023-04-23T09:52:16;17.70;99.90
25214;DHT22;13160;51.834;4.706;2023-04-23T09:54:47;17.70;99.90
25214;DHT22;13160;51.834;4.706;2023-04-23T09:57:17;17.80;99.90
25214;DHT22;13160;51.834;4.706;2023-04-23T09:59:46;17.90;99.90
25214;DHT22;13160;51.834;4.706;2023-04-23T10:02:29;17.90;99.90
25214;DHT22;13160;51.834;4.706;2023-04-23T10:04:59;18.00;99.90
25214;DHT22;13160;51.834;4.706;2023-04-23T10:07:47;18.00;99.90
25214;DHT22;13160;51.834;4.706;2023-04-23T10:10:17;18.10;99.90
25214;DHT22;13160;51.834;4.706;2023-04-23T10:12:48;18.20;99.90
25214;DHT22;13160;51.834;4.706;2023-04-23T10:15:22;18.30;99.90
25214;DHT22;13160;51.834;4.706;2023-04-23T10:17:53;18.40;99.90
25214;DHT22;13160;51.834;4.706;2023-04-23T10:20:22;18.50;99.90
25214;DHT22;13160;51.834;4.706;2023-04-23T10:22:52;18.60;99.90
25214;DHT22;13160;51.834;4.706;2023-04-23T10:25:23;18.60;99.90
25214;DHT22;13160;51.834;4.706;2023-04-23T10:27:55;18.70;99.90
25214;DHT22;13160;51.834;4.706;2023-04-23T10:30:26;18.70;99.90
25214;DHT22;13160;51.834;4.706;2023-04-23T10:32:58;18.80;99.90
25214;DHT22;13160;51.834;4.706;2023-04-23T10:35:29;18.80;99.90
25214;DHT22;13160;51.834;4.706;2023-04-23T10:37:58;18.80;99.90
25214;DHT22;13160;51.834;4.706;2023-04-23T10:40:31;18.80;99.90
25214;DHT22;13160;51.834;4.706;2023-04-23T10:43:02;18.90;99.90
25214;DHT22;13160;51.834;4.706;2023-04-23T10:45:31;18.90;99.90
25214;DHT22;13160;51.834;4.706;2023-04-23T10:47:59;18.90;99.90
25214;DHT22;13160;51.834;4.706;2023-04-23T10:50:29;19.00;99.90
25214;DHT22;13160;51.834;4.706;2023-04-23T10:53:01;19.00;99.90
25214;DHT22;13160;51.834;4.706;2023-04-23T10:55:31;19.00;99.90
25214;DHT22;13160;51.834;4.706;2023-04-23T10:58:03;19.00;99.90
25214;DHT22;13160;51.834;4.706;2023-04-23T11:00:43;18.90;99.90
25214;DHT22;13160;51.834;4.706;2023-04-23T11:03:36;18.80;99.90
25214;DHT22;13160;51.834;4.706;2023-04-23T11:06:12;18.80;99.90
25214;DHT22;13160;51.834;4.706;2023-04-23T11:08:51;18.70;99.90
25214;DHT22;13160;51.834;4.706;2023-04-23T11:11:37;18.70;99.90
25214;DHT22;13160;51.834;4.706;2023-04-23T11:14:12;18.60;99.90
25214;DHT22;13160;51.834;4.706;2023-04-23T11:16:41;18.70;99.90
25214;DHT22;13160;51.834;4.706;2023-04-23T11:19:10;18.70;99.90
25214;DHT22;13160;51.834;4.706;2023-04-23T11:21:57;18.70;99.90
25214;DHT22;13160;51.834;4.706;2023-04-23T11:24:28;18.80;99.90
25214;DHT22;13160;51.834;4.706;2023-04-23T11:26:57;18.80;99.90
25214;DHT22;13160;51.834;4.706;2023-04-23T11:29:28;18.80;99.90
25214;DHT22;13160;51.834;4.706;2023-04-23T11:31:57;18.90;99.90
25214;DHT22;13160;51.834;4.706;2023-04-23T11:34:30;18.90;99.90
25214;DHT22;13160;51.834;4.706;2023-04-23T11:36:59;19.00;99.90
25214;DHT22;13160;51.834;4.706;2023-04-23T11:39:30;19.00;99.90
25214;DHT22;13160;51.834;4.706;2023-04-23T11:41:59;19.10;99.90
25214;DHT22;13160;51.834;4.706;2023-04-23T11:44:30;19.20;99.90
25214;DHT22;13160;51.834;4.706;2023-04-23T11:46:59;19.30;99.90
25214;DHT22;13160;51.834;4.706;2023-04-23T11:49:28;19.30;99.90
25214;DHT22;13160;51.834;4.706;2023-04-23T11:51:58;19.30;99.90
25214;DHT22;13160;51.834;4.706;2023-04-23T11:54:28;19.40;99.90
25214;DHT22;13160;51.834;4.706;2023-04-23T11:56:56;19.40;99.90
25214;DHT22;13160;51.834;4.706;2023-04-23T11:59:25;19.50;99.90
25214;DHT22;13160;51.834;4.706;2023-04-23T12:01:56;19.50;99.90
25214;DHT22;13160;51.834;4.706;2023-04-23T12:04:27;19.50;99.90
25214;DHT22;13160;51.834;4.706;2023-04-23T12:06:57;19.50;99.90
25214;DHT22;13160;51.834;4.706;2023-04-23T12:09:35;19.40;99.90
25214;DHT22;13160;51.834;4.706;2023-04-23T12:12:05;19.40;99.90
25214;DHT22;13160;51.834;4.706;2023-04-23T12:14:33;19.50;99.70
25214;DHT22;13160;51.834;4.706;2023-04-23T12:17:10;19.50;99.50
25214;DHT22;13160;51.834;4.706;2023-04-23T12:19:38;19.50;99.50
25214;DHT22;13160;51.834;4.706;2023-04-23T12:22:10;19.50;99.40
25214;DHT22;13160;51.834;4.706;2023-04-23T12:24:46;19.50;99.30
25214;DHT22;13160;51.834;4.706;2023-04-23T12:27:19;19.40;99.30
25214;DHT22;13160;51.834;4.706;2023-04-23T12:29:57;19.40;99.20
25214;DHT22;13160;51.834;4.706;2023-04-23T12:32:28;19.30;99.20
25214;DHT22;13160;51.834;4.706;2023-04-23T12:34:56;19.20;99.10
25214;DHT22;13160;51.834;4.706;2023-04-23T12:37:27;19.20;99.20
25214;DHT22;13160;51.834;4.706;2023-04-23T12:39:56;19.10;99.40
25214;DHT22;13160;51.834;4.706;2023-04-23T12:42:25;19.00;99.70
25214;DHT22;13160;51.834;4.706;2023-04-23T12:44:54;18.90;99.90
25214;DHT22;13160;51.834;4.706;2023-04-23T12:47:22;18.80;99.90
25214;DHT22;13160;51.834;4.706;2023-04-23T12:49:52;18.70;99.90
25214;DHT22;13160;51.834;4.706;2023-04-23T12:52:22;18.50;99.90
25214;DHT22;13160;51.834;4.706;2023-04-23T12:54:50;18.40;99.90
25214;DHT22;13160;51.834;4.706;2023-04-23T12:57:22;18.20;99.90
25214;DHT22;13160;51.834;4.706;2023-04-23T12:59:51;18.00;99.90
25214;DHT22;13160;51.834;4.706;2023-04-23T13:02:21;17.90;99.90
25214;DHT22;13160;51.834;4.706;2023-04-23T13:04:52;17.80;99.90
25214;DHT22;13160;51.834;4.706;2023-04-23T13:07:27;17.60;99.90
25214;DHT22;13160;51.834;4.706;2023-04-23T13:09:56;17.50;99.90
25214;DHT22;13160;51.834;4.706;2023-04-23T13:12:25;17.40;99.90
25214;DHT22;13160;51.834;4.706;2023-04-23T13:14:54;17.20;99.90
25214;DHT22;13160;51.834;4.706;2023-04-23T13:17:23;17.10;99.90
25214;DHT22;13160;51.834;4.706;2023-04-23T13:19:54;17.00;99.90
25214;DHT22;13160;51.834;4.706;2023-04-23T13:22:22;16.90;99.90
25214;DHT22;13160;51.834;4.706;2023-04-23T13:24:54;16.90;99.90
25214;DHT22;13160;51.834;4.706;2023-04-23T13:27:24;16.80;99.90
25214;DHT22;13160;51.834;4.706;2023-04-23T13:29:53;16.80;99.90
25214;DHT22;13160;51.834;4.706;2023-04-23T13:32:22;16.80;99.90
25214;DHT22;13160;51.834;4.706;2023-04-23T13:34:54;16.70;99.90
25214;DHT22;13160;51.834;4.706;2023-04-23T13:37:26;16.70;99.90
25214;DHT22;13160;51.834;4.706;2023-04-23T13:39:54;16.70;99.90
25214;DHT22;13160;51.834;4.706;2023-04-23T13:42:23;16.70;99.90
25214;DHT22;13160;51.834;4.706;2023-04-23T13:44:51;16.60;99.90
25214;DHT22;13160;51.834;4.706;2023-04-23T13:47:19;16.50;99.90
25214;DHT22;13160;51.834;4.706;2023-04-23T13:49:48;16.50;99.90
25214;DHT22;13160;51.834;4.706;2023-04-23T13:52:18;16.50;99.90
25214;DHT22;13160;51.834;4.706;2023-04-23T13:54:47;16.50;99.90
25214;DHT22;13160;51.834;4.706;2023-04-23T13:57:16;16.50;99.90
25214;DHT22;13160;51.834;4.706;2023-04-23T13:59:44;16.50;99.90
25214;DHT22;13160;51.834;4.706;2023-04-23T14:02:15;16.50;99.90
25214;DHT22;13160;51.834;4.706;2023-04-23T14:04:43;16.40;99.90
25214;DHT22;13160;51.834;4.706;2023-04-23T14:07:12;16.40;99.90
25214;DHT22;13160;51.834;4.706;2023-04-23T14:09:42;16.40;99.90
25214;DHT22;13160;51.834;4.706;2023-04-23T14:12:12;16.40;99.90
25214;DHT22;13160;51.834;4.706;2023-04-23T14:14:40;16.30;99.90
25214;DHT22;13160;51.834;4.706;2023-04-23T14:17:09;16.30;99.90
25214;DHT22;13160;51.834;4.706;2023-04-23T14:19:37;16.30;99.90
25214;DHT22;13160;51.834;4.706;2023-04-23T14:22:06;16.20;99.90
25214;DHT22;13160;51.834;4.706;2023-04-23T14:24:39;16.20;99.90
25214;DHT22;13160;51.834;4.706;2023-04-23T14:27:14;16.10;99.90
25214;DHT22;13160;51.834;4.706;2023-04-23T14:29:49;16.10;99.90
25214;DHT22;13160;51.834;4.706;2023-04-23T14:32:18;16.10;99.90
25214;DHT22;13160;51.834;4.706;2023-04-23T14:34:47;16.00;99.90
25214;DHT22;13160;51.834;4.706;2023-04-23T14:37:15;15.90;99.90
25214;DHT22;13160;51.834;4.706;2023-04-23T14:39:51;15.90;99.90
25214;DHT22;13160;51.834;4.706;2023-04-23T14:42:19;15.80;99.90
25214;DHT22;13160;51.834;4.706;2023-04-23T14:44:48;15.70;99.90
25214;DHT22;13160;51.834;4.706;2023-04-23T14:47:19;15.60;99.90
25214;DHT22;13160;51.834;4.706;2023-04-23T14:49:47;15.60;99.90
25214;DHT22;13160;51.834;4.706;2023-04-23T14:52:16;15.50;99.90
25214;DHT22;13160;51.834;4.706;2023-04-23T14:54:49;15.50;99.90
25214;DHT22;13160;51.834;4.706;2023-04-23T14:57:19;15.40;99.90
25214;DHT22;13160;51.834;4.706;2023-04-23T14:59:47;15.30;99.90
25214;DHT22;13160;51.834;4.706;2023-04-23T15:02:15;15.30;99.90
25214;DHT22;13160;51.834;4.706;2023-04-23T15:04:44;15.20;99.90
25214;DHT22;13160;51.834;4.706;2023-04-23T15:07:13;15.10;99.90
25214;DHT22;13160;51.834;4.706;2023-04-23T15:09:41;15.10;99.90
25214;DHT22;13160;51.834;4.706;2023-04-23T15:12:41;15.00;99.90
25214;DHT22;13160;51.834;4.706;2023-04-23T15:15:20;15.00;99.90
25214;DHT22;13160;51.834;4.706;2023-04-23T15:18:03;14.90;99.90
25214;DHT22;13160;51.834;4.706;2023-04-23T15:20:32;14.90;99.90
25214;DHT22;13160;51.834;4.706;2023-04-23T15:23:00;14.80;99.90
25214;DHT22;13160;51.834;4.706;2023-04-23T15:25:29;14.80;99.90
25214;DHT22;13160;51.834;4.706;2023-04-23T15:28:00;14.80;99.90
25214;DHT22;13160;51.834;4.706;2023-04-23T15:30:29;14.80;99.90
25214;DHT22;13160;51.834;4.706;2023-04-23T15:32:58;14.70;99.90
25214;DHT22;13160;51.834;4.706;2023-04-23T15:35:27;14.70;99.90
25214;DHT22;13160;51.834;4.706;2023-04-23T15:37:55;14.70;99.90
25214;DHT22;13160;51.834;4.706;2023-04-23T15:40:24;14.70;99.90
25214;DHT22;13160;51.834;4.706;2023-04-23T15:42:55;14.70;99.90
25214;DHT22;13160;51.834;4.706;2023-04-23T15:45:25;14.70;99.90
25214;DHT22;13160;51.834;4.706;2023-04-23T15:47:53;14.60;99.90
25214;DHT22;13160;51.834;4.706;2023-04-23T15:50:22;14.60;99.90
25214;DHT22;13160;51.834;4.706;2023-04-23T15:52:52;14.60;99.90